createdAt,value
2019-06-07T00:01:55.007Z,16.08
2019-06-07T00:04:25.313Z,16.10
2019-06-07T00:06:55.745Z,16.09
2019-06-07T00:09:25.959Z,16.07
2019-06-07T00:11:56.178Z,15.99
2019-06-07T00:14:27.911Z,15.87
2019-06-07T00:16:58.208Z,15.66
2019-06-07T00:19:28.368Z,15.65
2019-06-07T00:22:22.567Z,15.72
2019-06-07T00:24:30.556Z,15.68
2019-06-07T00:27:00.794Z,15.68
2019-06-07T00:29:31.029Z,15.69
2019-06-07T00:32:01.284Z,15.53
2019-06-07T00:34:31.471Z,15.44
2019-06-07T00:37:02.664Z,15.37
2019-06-07T00:39:32.888Z,15.43
2019-06-07T00:42:03.207Z,15.29
2019-06-07T00:44:33.388Z,15.34
2019-06-07T00:47:04.087Z,15.33
2019-06-07T00:49:41.144Z,15.31
2019-06-07T00:52:07.304Z,15.27
2019-06-07T00:54:37.613Z,15.25
2019-06-07T00:57:07.918Z,15.21
2019-06-07T00:59:38.120Z,15.15
2019-06-07T01:02:08.312Z,15.11
2019-06-07T01:04:38.515Z,15.05
2019-06-07T01:07:08.735Z,15.01
2019-06-07T01:09:38.956Z,14.98
2019-06-07T01:12:09.127Z,14.91
2019-06-07T01:14:39.826Z,14.88
2019-06-07T01:17:29.124Z,14.86
2019-06-07T01:19:48.362Z,14.78
2019-06-07T01:22:20.633Z,14.78
2019-06-07T01:24:50.420Z,14.72
2019-06-07T01:27:22.689Z,14.69
2019-06-07T01:29:52.468Z,14.65
2019-06-07T01:32:24.617Z,14.63
2019-06-07T01:34:55.681Z,14.57
2019-06-07T01:37:27.872Z,14.54
2019-06-07T01:39:57.866Z,14.50
2019-06-07T01:42:29.461Z,14.41
2019-06-07T01:44:59.946Z,14.41
2019-06-07T01:47:32.218Z,14.35
2019-06-07T01:50:02.266Z,14.32
2019-06-07T01:52:32.480Z,14.31
2019-06-07T01:55:02.687Z,14.29
2019-06-07T01:57:45.574Z,14.21
2019-06-07T02:00:07.844Z,14.09
2019-06-07T02:02:38.084Z,14.12
2019-06-07T02:05:08.567Z,14.05
2019-06-07T02:07:38.775Z,14.03
2019-06-07T02:10:10.390Z,14.00
2019-06-07T02:12:43.441Z,13.94
2019-06-07T02:15:12.738Z,13.92
2019-06-07T02:17:42.985Z,13.92
2019-06-07T02:20:13.313Z,13.87
2019-06-07T02:22:43.510Z,13.83
2019-06-07T02:25:37.245Z,13.75
2019-06-07T02:27:46.475Z,13.73
2019-06-07T02:30:40.317Z,13.72
2019-06-07T02:32:49.831Z,13.69
2019-06-07T02:35:25.580Z,13.66
2019-06-07T02:37:53.716Z,13.60
2019-06-07T02:40:27.094Z,13.56
2019-06-07T02:42:56.307Z,13.56
2019-06-07T02:45:29.910Z,13.53
2019-06-07T02:48:01.158Z,13.49
2019-06-07T02:50:36.462Z,13.45
2019-06-07T02:53:03.903Z,13.40
2019-06-07T02:56:26.301Z,13.38
2019-06-07T02:58:08.093Z,13.35
2019-06-07T03:01:07.600Z,13.29
2019-06-07T03:03:22.368Z,13.29
2019-06-07T03:06:03.345Z,13.24
2019-06-07T03:08:36.589Z,13.24
2019-06-07T03:11:07.771Z,13.20
2019-06-07T03:13:42.308Z,13.19
2019-06-07T03:16:14.343Z,13.15
2019-06-07T03:19:05.962Z,13.14
2019-06-07T03:21:44.150Z,13.14
2019-06-07T03:24:14.316Z,13.14
2019-06-07T03:27:32.244Z,13.16
2019-06-07T03:29:16.829Z,13.12
2019-06-07T03:31:48.300Z,13.10
2019-06-07T03:34:23.249Z,13.06
2019-06-07T03:36:53.473Z,13.05
2019-06-07T03:39:25.166Z,13.11
2019-06-07T03:42:05.583Z,13.11
2019-06-07T03:44:28.574Z,13.15
2019-06-07T03:46:59.621Z,13.13
2019-06-07T03:49:37.517Z,13.14
2019-06-07T03:52:10.186Z,13.12
2019-06-07T03:54:40.493Z,13.18
2019-06-07T03:57:10.713Z,13.21
2019-06-07T03:59:43.097Z,13.24
2019-06-07T04:02:20.023Z,13.27
2019-06-07T04:04:50.198Z,13.31
2019-06-07T04:07:21.708Z,13.34
2019-06-07T04:09:51.963Z,13.42
2019-06-07T04:12:22.121Z,13.39
2019-06-07T04:14:52.322Z,13.46
2019-06-07T04:17:44.573Z,13.50
2019-06-07T04:20:09.310Z,13.49
2019-06-07T04:22:42.435Z,13.56
2019-06-07T04:25:13.441Z,13.60
2019-06-07T04:27:43.623Z,13.57
2019-06-07T04:30:15.646Z,13.76
2019-06-07T04:32:47.957Z,13.88
2019-06-07T04:35:18.513Z,13.88
2019-06-07T04:37:49.142Z,13.84
2019-06-07T04:40:21.453Z,13.75
2019-06-07T04:42:54.058Z,13.78
2019-06-07T04:45:39.733Z,13.76
2019-06-07T04:48:06.850Z,13.86
2019-06-07T04:50:40.332Z,13.80
2019-06-07T04:53:09.688Z,13.74
2019-06-07T04:55:51.080Z,13.72
2019-06-07T04:58:23.982Z,13.76
2019-06-07T05:01:02.569Z,13.81
2019-06-07T05:03:26.574Z,13.99
2019-06-07T05:05:56.778Z,14.07
2019-06-07T05:08:29.822Z,14.17
2019-06-07T05:10:58.942Z,14.23
2019-06-07T05:13:31.489Z,14.20
2019-06-07T05:16:01.099Z,14.21
2019-06-07T05:18:33.676Z,14.18
2019-06-07T05:21:06.292Z,14.28
2019-06-07T05:26:08.374Z,14.26
2019-06-07T05:28:42.294Z,14.36
2019-06-07T05:31:11.430Z,14.43
2019-06-07T05:33:43.578Z,14.43
2019-06-07T05:36:15.052Z,14.45
2019-06-07T05:38:45.378Z,14.52
2019-06-07T05:41:16.908Z,14.55
2019-06-07T05:44:00.254Z,14.64
2019-06-07T05:46:19.068Z,14.76
2019-06-07T05:48:49.256Z,14.82
2019-06-07T05:51:19.489Z,14.87
2019-06-07T05:53:49.766Z,14.82
2019-06-07T05:56:19.976Z,14.90
2019-06-07T05:58:50.223Z,14.91
2019-06-07T06:01:42.975Z,14.98
2019-06-07T06:03:52.329Z,15.08
2019-06-07T06:06:22.626Z,15.16
2019-06-07T06:09:12.947Z,15.18
2019-06-07T06:11:43.225Z,15.25
2019-06-07T06:14:07.299Z,15.34
2019-06-07T06:16:32.462Z,15.42
2019-06-07T06:19:03.668Z,15.46
2019-06-07T06:21:36.194Z,15.52
2019-06-07T06:24:06.419Z,15.54
2019-06-07T06:26:40.789Z,15.56
2019-06-07T06:29:10.193Z,15.65
2019-06-07T06:31:49.342Z,15.65
2019-06-07T06:34:12.809Z,15.69
2019-06-07T06:36:45.584Z,15.77
2019-06-07T06:39:15.088Z,15.88
2019-06-07T06:41:54.455Z,15.90
2019-06-07T06:44:17.370Z,15.93
2019-06-07T06:46:57.069Z,16.02
2019-06-07T06:49:20.037Z,16.10
2019-06-07T06:51:53.408Z,16.17
2019-06-07T06:54:39.504Z,16.30
2019-06-07T06:57:17.158Z,16.35
2019-06-07T06:59:38.604Z,16.36
2019-06-07T07:01:58.172Z,16.42
2019-06-07T07:04:28.466Z,16.50
2019-06-07T07:06:59.128Z,16.54
2019-06-07T07:09:29.734Z,16.57
2019-06-07T07:12:11.109Z,16.66
2019-06-07T07:14:31.894Z,16.75
2019-06-07T07:17:02.163Z,16.72
2019-06-07T07:19:32.329Z,16.79
2019-06-07T07:22:02.531Z,16.80
2019-06-07T07:24:32.727Z,16.83
2019-06-07T07:27:02.967Z,16.88
2019-06-07T07:29:33.202Z,16.93
2019-06-07T07:32:03.422Z,16.93
2019-06-07T07:34:36.889Z,17.02
2019-06-07T07:37:06.493Z,17.07
2019-06-07T07:39:36.693Z,17.09
2019-06-07T07:42:20.768Z,17.17
2019-06-07T07:44:39.921Z,17.21
2019-06-07T07:47:10.243Z,17.28
2019-06-07T07:49:40.522Z,17.36
2019-06-07T07:52:10.763Z,17.54
2019-06-07T07:54:41.057Z,17.59
2019-06-07T07:57:11.261Z,17.73
2019-06-07T07:59:54.038Z,17.73
2019-06-07T08:02:13.381Z,17.91
2019-06-07T08:05:13.659Z,17.97
2019-06-07T08:07:15.597Z,18.19
2019-06-07T08:09:47.430Z,18.46
2019-06-07T08:12:17.781Z,18.52
2019-06-07T08:14:50.261Z,18.63
2019-06-07T08:17:20.139Z,18.79
2019-06-07T08:19:52.199Z,19.00
2019-06-07T08:22:22.893Z,19.16
2019-06-07T08:24:55.298Z,19.31
2019-06-07T08:27:26.943Z,19.22
2019-06-07T08:30:15.751Z,19.38
2019-06-07T08:32:29.217Z,19.94
2019-06-07T08:35:03.336Z,20.02
2019-06-07T08:38:14.313Z,19.97
2019-06-07T08:40:04.473Z,19.96
2019-06-07T08:42:48.442Z,19.97
2019-06-07T08:45:11.459Z,20.14
2019-06-07T08:48:07.464Z,20.69
2019-06-07T08:50:31.391Z,20.69
2019-06-07T08:53:11.502Z,20.85
2019-06-07T08:55:33.627Z,20.60
2019-06-07T08:58:08.456Z,20.58
2019-06-07T09:00:47.084Z,20.73
2019-06-07T09:03:07.844Z,20.20
2019-06-07T09:05:38.119Z,20.75
2019-06-07T09:08:28.258Z,21.10
2019-06-07T09:10:40.288Z,20.99
2019-06-07T09:13:11.875Z,20.75
2019-06-07T09:15:42.323Z,20.76
2019-06-07T09:20:48.916Z,20.98
2019-06-07T09:23:22.623Z,21.15
2019-06-07T09:26:02.578Z,21.00
2019-06-07T09:28:25.337Z,20.99
2019-06-07T09:30:57.877Z,21.07
2019-06-07T09:33:28.718Z,21.49
2019-06-07T09:36:01.586Z,21.11
2019-06-07T09:38:30.924Z,20.97
2019-06-07T09:41:04.490Z,21.44
2019-06-07T09:46:12.986Z,21.87
2019-06-07T09:51:19.742Z,22.26
2019-06-07T09:53:47.779Z,21.52
2019-06-07T09:56:18.402Z,21.65
2019-06-07T09:58:52.513Z,21.74
2019-06-07T10:01:20.679Z,21.52
2019-06-07T10:03:51.573Z,21.94
2019-06-07T10:06:21.861Z,21.95
2019-06-07T10:11:24.308Z,22.03
2019-06-07T10:13:54.532Z,22.00
2019-06-07T10:16:24.804Z,21.78
2019-06-07T10:18:55.126Z,21.81
2019-06-07T10:21:25.452Z,21.60
2019-06-07T10:23:55.715Z,21.49
2019-06-07T10:26:25.942Z,21.37
2019-06-07T10:28:56.183Z,21.16
2019-06-07T10:31:26.427Z,21.45
2019-06-07T10:33:56.749Z,21.49
2019-06-07T10:36:26.999Z,21.49
2019-06-07T10:38:57.265Z,21.49
2019-06-07T10:41:27.544Z,21.55
2019-06-07T10:43:57.829Z,21.67
2019-06-07T10:46:28.070Z,21.80
2019-06-07T10:48:58.437Z,21.68
2019-06-07T10:51:28.639Z,21.61
2019-06-07T10:53:58.830Z,21.63
2019-06-07T10:56:29.060Z,21.71
2019-06-07T10:58:59.263Z,21.83
2019-06-07T11:01:29.460Z,21.96
2019-06-07T11:03:59.800Z,21.91
2019-06-07T11:06:31.154Z,21.85
2019-06-07T11:09:01.348Z,21.93
2019-06-07T11:11:33.064Z,21.81
2019-06-07T11:14:04.357Z,21.93
2019-06-07T11:16:34.650Z,21.95
2019-06-07T11:19:06.054Z,21.94
2019-06-07T11:21:36.359Z,21.94
2019-06-07T11:24:06.593Z,22.02
2019-06-07T11:26:36.848Z,22.21
2019-06-07T11:29:08.840Z,22.48
2019-06-07T11:31:40.280Z,22.35
2019-06-07T11:34:10.553Z,22.15
2019-06-07T11:36:40.717Z,22.47
2019-06-07T11:39:11.204Z,22.36
2019-06-07T11:41:41.396Z,22.83
2019-06-07T11:44:12.874Z,22.96
2019-06-07T11:46:43.218Z,23.14
2019-06-07T11:49:19.906Z,23.36
2019-06-07T11:51:45.522Z,23.20
2019-06-07T11:54:16.202Z,23.09
2019-06-07T11:56:46.569Z,23.13
2019-06-07T11:59:17.863Z,22.87
2019-06-07T12:01:48.069Z,22.96
2019-06-07T12:04:32.519Z,23.05
2019-06-07T12:06:50.281Z,22.89
2019-06-07T12:09:20.473Z,22.73
2019-06-07T12:11:52.217Z,22.56
2019-06-07T12:14:24.432Z,22.42
2019-06-07T12:16:54.423Z,22.50
2019-06-07T12:19:29.112Z,22.50
2019-06-07T12:22:06.101Z,22.46
2019-06-07T12:24:39.285Z,22.44
2019-06-07T12:27:08.269Z,22.42
2019-06-07T12:29:38.495Z,22.41
2019-06-07T12:32:08.764Z,22.45
2019-06-07T12:34:39.109Z,22.44
2019-06-07T12:37:09.497Z,22.33
2019-06-07T12:39:39.713Z,22.42
2019-06-07T12:42:12.410Z,22.48
2019-06-07T12:44:43.591Z,22.75
2019-06-07T12:47:15.027Z,22.59
2019-06-07T12:49:45.314Z,22.69
2019-06-07T12:52:17.712Z,22.76
2019-06-07T12:54:48.286Z,22.82
2019-06-07T12:57:20.047Z,22.97
2019-06-07T12:59:53.717Z,22.99
2019-06-07T13:02:25.516Z,22.97
2019-06-07T13:04:56.062Z,23.00
2019-06-07T13:07:26.355Z,23.28
2019-06-07T13:09:56.626Z,23.17
2019-06-07T13:12:28.194Z,22.87
2019-06-07T13:14:58.483Z,23.14
2019-06-07T13:17:28.740Z,23.43
2019-06-07T13:19:58.914Z,23.71
2019-06-07T13:22:29.242Z,23.84
2019-06-07T13:24:59.720Z,23.85
2019-06-07T13:27:33.374Z,23.80
2019-06-07T13:30:09.818Z,24.02
2019-06-07T13:32:37.834Z,23.94
2019-06-07T13:35:10.997Z,23.94
2019-06-07T13:37:41.243Z,24.25
2019-06-07T13:40:12.103Z,24.78
2019-06-07T13:42:42.348Z,24.96
2019-06-07T13:45:18.000Z,25.32
2019-06-07T13:47:50.885Z,25.36
2019-06-07T13:50:23.910Z,25.71
2019-06-07T13:52:54.174Z,25.71
2019-06-07T13:55:25.803Z,25.91
2019-06-07T13:57:56.015Z,25.87
2019-06-07T14:00:26.655Z,25.69
2019-06-07T14:02:57.217Z,25.44
2019-06-07T14:05:36.307Z,25.14
2019-06-07T14:08:09.959Z,24.88
2019-06-07T14:10:44.008Z,24.76
2019-06-07T14:13:14.313Z,24.85
2019-06-07T14:15:44.948Z,25.01
2019-06-07T14:18:26.499Z,25.09
2019-06-07T14:20:58.977Z,25.09
2019-06-07T14:23:45.757Z,24.80
2019-06-07T14:26:01.406Z,24.95
2019-06-07T14:28:34.223Z,24.82
2019-06-07T14:31:05.627Z,24.96
2019-06-07T14:33:40.990Z,25.08
2019-06-07T14:36:11.172Z,25.03
2019-06-07T14:38:41.380Z,25.32
2019-06-07T14:41:11.834Z,25.35
2019-06-07T14:43:42.246Z,25.34
2019-06-07T14:46:12.633Z,25.51
2019-06-07T14:48:42.854Z,25.60
2019-06-07T14:51:13.085Z,25.75
2019-06-07T14:53:43.298Z,25.85
2019-06-07T14:56:13.666Z,25.83
2019-06-07T14:58:43.999Z,26.42
2019-06-07T15:01:14.375Z,26.92
2019-06-07T15:03:44.565Z,27.61
2019-06-07T15:06:15.963Z,28.08
2019-06-07T15:08:46.148Z,28.03
2019-06-07T15:11:16.436Z,28.63
2019-06-07T15:13:47.757Z,28.69
2019-06-07T15:16:23.108Z,29.00
2019-06-07T15:18:53.362Z,29.09
2019-06-07T15:21:24.677Z,29.38
2019-06-07T15:23:57.568Z,29.30
2019-06-07T15:26:28.352Z,29.40
2019-06-07T15:28:58.711Z,29.70
2019-06-07T15:31:32.116Z,29.79
2019-06-07T15:34:02.388Z,29.69
2019-06-07T15:36:34.422Z,29.80
2019-06-07T15:39:07.210Z,29.87
2019-06-07T15:41:39.787Z,29.42
2019-06-07T15:44:13.855Z,29.25
2019-06-07T15:46:44.095Z,29.84
2019-06-07T15:49:14.334Z,29.54
2019-06-07T15:51:45.830Z,30.03
2019-06-07T15:54:16.024Z,30.16
2019-06-07T15:56:46.287Z,30.53
2019-06-07T15:59:16.532Z,30.10
2019-06-07T16:01:48.768Z,30.38
2019-06-07T16:04:18.950Z,30.19
2019-06-07T16:06:49.155Z,30.50
2019-06-07T16:09:19.374Z,30.41
2019-06-07T16:11:56.352Z,30.65
2019-06-07T16:14:29.560Z,30.98
2019-06-07T16:17:05.255Z,30.58
2019-06-07T16:19:44.457Z,31.02
2019-06-07T16:22:14.432Z,31.33
2019-06-07T16:24:47.529Z,31.04
2019-06-07T16:27:18.277Z,31.09
2019-06-07T16:29:48.892Z,31.14
2019-06-07T16:32:25.049Z,31.17
2019-06-07T16:34:57.341Z,31.21
2019-06-07T16:37:27.785Z,30.28
2019-06-07T16:40:00.011Z,30.24
2019-06-07T16:42:30.249Z,31.28
2019-06-07T16:45:08.700Z,31.69
2019-06-07T16:47:42.315Z,31.00
2019-06-07T16:50:13.670Z,30.32
2019-06-07T16:52:46.459Z,29.53
2019-06-07T16:55:16.356Z,29.36
2019-06-07T16:57:46.552Z,30.18
2019-06-07T17:00:17.387Z,30.51
2019-06-07T17:02:48.861Z,30.16
2019-06-07T17:05:24.763Z,30.25
2019-06-07T17:07:59.256Z,30.78
2019-06-07T17:10:30.518Z,30.22
2019-06-07T17:13:00.922Z,30.86
2019-06-07T17:15:31.121Z,30.50
2019-06-07T17:18:06.990Z,30.88
2019-06-07T17:20:37.187Z,30.51
2019-06-07T17:23:09.556Z,30.49
2019-06-07T17:25:43.514Z,29.85
2019-06-07T17:28:14.859Z,28.65
2019-06-07T17:30:46.115Z,27.56
2019-06-07T17:33:19.323Z,27.34
2019-06-07T17:35:50.592Z,27.08
2019-06-07T17:38:21.203Z,27.34
2019-06-07T17:40:51.548Z,27.35
2019-06-07T17:43:21.827Z,27.66
2019-06-07T17:45:56.779Z,27.54
2019-06-07T17:48:37.745Z,26.97
2019-06-07T17:51:08.388Z,26.59
2019-06-07T17:53:38.615Z,26.16
2019-06-07T17:56:08.773Z,26.18
2019-06-07T17:58:39.032Z,26.20
2019-06-07T18:01:10.093Z,25.55
2019-06-07T18:03:40.381Z,25.67
2019-06-07T18:06:16.612Z,25.67
2019-06-07T18:08:51.667Z,25.41
2019-06-07T18:11:22.929Z,25.48
2019-06-07T18:14:10.156Z,25.30
2019-06-07T18:16:28.714Z,25.15
2019-06-07T18:19:01.048Z,24.92
2019-06-07T18:21:31.544Z,24.70
2019-06-07T18:24:04.596Z,24.54
2019-06-07T18:26:39.005Z,24.53
2019-06-07T18:29:12.504Z,24.29
2019-06-07T18:31:42.688Z,24.46
2019-06-07T18:34:13.033Z,24.12
2019-06-07T18:36:43.220Z,24.25
2019-06-07T18:39:13.194Z,24.16
2019-06-07T18:41:43.391Z,23.78
2019-06-07T18:44:21.557Z,23.87
2019-06-07T18:46:50.142Z,23.77
2019-06-07T18:49:23.951Z,23.73
2019-06-07T18:52:20.921Z,23.63
2019-06-07T18:54:53.114Z,23.39
2019-06-07T18:57:28.326Z,23.22
2019-06-07T18:59:58.944Z,23.20
2019-06-07T19:02:29.712Z,23.18
2019-06-07T19:05:01.729Z,22.97
2019-06-07T19:07:32.007Z,23.08
2019-06-07T19:10:06.405Z,22.86
2019-06-07T19:12:36.597Z,23.00
2019-06-07T19:15:08.115Z,22.95
2019-06-07T19:17:38.581Z,22.72
2019-06-07T19:20:09.173Z,22.73
2019-06-07T19:22:41.398Z,22.81
2019-06-07T19:25:12.214Z,22.86
2019-06-07T19:27:42.654Z,22.73
2019-06-07T19:30:15.566Z,22.90
2019-06-07T19:32:49.760Z,22.77
2019-06-07T19:35:20.274Z,22.86
2019-06-07T19:37:51.778Z,22.75
2019-06-07T19:40:22.152Z,22.66
2019-06-07T19:42:52.293Z,22.75
2019-06-07T19:45:31.523Z,22.69
2019-06-07T19:47:58.705Z,22.69
2019-06-07T19:50:29.008Z,22.64
2019-06-07T19:52:59.600Z,22.64
2019-06-07T19:55:29.938Z,22.62
2019-06-07T19:58:01.787Z,22.57
2019-06-07T20:00:32.171Z,22.54
2019-06-07T20:03:05.199Z,22.61
2019-06-07T20:05:38.234Z,22.51
2019-06-07T20:08:08.568Z,22.47
2019-06-07T20:10:38.973Z,22.42
2019-06-07T20:13:09.188Z,22.34
2019-06-07T20:15:39.618Z,22.01
2019-06-07T20:18:12.520Z,21.24
2019-06-07T20:20:44.716Z,19.85
2019-06-07T20:23:15.113Z,19.17
2019-06-07T20:25:45.340Z,18.42
2019-06-07T20:28:15.567Z,18.05
2019-06-07T20:30:47.936Z,18.09
2019-06-07T20:33:28.673Z,17.83
2019-06-07T20:35:50.123Z,17.87
2019-06-07T20:38:20.363Z,17.70
2019-06-07T20:40:50.662Z,17.35
2019-06-07T20:43:21.136Z,16.98
2019-06-07T20:45:51.423Z,17.07
2019-06-07T20:48:26.575Z,16.90
2019-06-07T20:51:00.613Z,16.86
2019-06-07T20:53:31.869Z,16.48
2019-06-07T20:56:04.597Z,16.21
2019-06-07T20:58:37.166Z,16.10
2019-06-07T21:01:09.048Z,15.91
2019-06-07T21:03:41.413Z,16.02
2019-06-07T21:06:11.811Z,15.89
2019-06-07T21:08:42.528Z,15.88
2019-06-07T21:11:12.848Z,15.99
2019-06-07T21:13:43.159Z,15.92
2019-06-07T21:16:13.341Z,15.84
2019-06-07T21:18:43.526Z,16.20
2019-06-07T21:21:13.887Z,16.24
2019-06-07T21:23:44.233Z,16.26
2019-06-07T21:26:14.439Z,16.43
2019-06-07T21:28:44.848Z,16.56
2019-06-07T21:31:16.753Z,16.69
2019-06-07T21:33:47.359Z,16.76
2019-06-07T21:36:17.880Z,16.75
2019-06-07T21:38:48.746Z,16.67
2019-06-07T21:41:22.025Z,16.67
2019-06-07T21:43:52.246Z,16.87
2019-06-07T21:46:23.547Z,16.45
2019-06-07T21:48:53.716Z,16.34
2019-06-07T21:51:24.213Z,16.22
2019-06-07T21:53:55.489Z,16.40
2019-06-07T21:56:25.715Z,16.50
2019-06-07T21:58:55.933Z,16.56
2019-06-07T22:01:30.101Z,16.62
2019-06-07T22:04:00.329Z,16.55
2019-06-07T22:06:30.573Z,16.67
2019-06-07T22:09:03.827Z,16.48
2019-06-07T22:11:34.946Z,16.45
2019-06-07T22:14:06.247Z,16.43
2019-06-07T22:16:36.721Z,16.38
2019-06-07T22:19:06.986Z,16.33
2019-06-07T22:21:37.304Z,16.48
2019-06-07T22:24:08.809Z,16.16
2019-06-07T22:26:39.235Z,16.29
2019-06-07T22:29:10.300Z,16.04
2019-06-07T22:31:41.100Z,16.04
2019-06-07T22:34:12.712Z,15.62
2019-06-07T22:36:43.155Z,15.81
2019-06-07T22:39:13.968Z,15.65
2019-06-07T22:41:44.624Z,15.75
2019-06-07T22:44:14.968Z,15.72
2019-06-07T22:46:50.059Z,15.60
2019-06-07T22:49:20.400Z,15.71
2019-06-07T22:51:50.901Z,15.95
2019-06-07T22:54:21.179Z,16.17
2019-06-07T22:56:56.454Z,16.27
2019-06-07T22:59:26.635Z,16.34
2019-06-07T23:01:56.822Z,16.24
2019-06-07T23:04:27.000Z,16.12
2019-06-07T23:06:57.225Z,16.18
2019-06-07T23:09:27.955Z,16.30
2019-06-07T23:11:59.696Z,16.24
2019-06-07T23:14:29.890Z,16.19
2019-06-07T23:17:00.206Z,15.91
2019-06-07T23:19:30.421Z,16.01
2019-06-07T23:22:00.772Z,16.08
2019-06-07T23:24:30.957Z,16.10
2019-06-07T23:27:02.266Z,15.68
2019-06-07T23:29:32.521Z,15.88
2019-06-07T23:32:02.679Z,15.92
2019-06-07T23:34:33.423Z,16.03
2019-06-07T23:37:03.615Z,15.92
2019-06-07T23:39:33.838Z,15.82
2019-06-07T23:42:03.987Z,15.97
2019-06-07T23:44:34.583Z,15.86
2019-06-07T23:47:11.296Z,15.46
2019-06-07T23:49:36.620Z,15.39
2019-06-07T23:52:06.884Z,15.37
2019-06-07T23:54:37.106Z,15.42
2019-06-07T23:57:07.224Z,15.54
2019-06-07T23:59:56.464Z,15.44
